Terminal Aerodrome Forecast
Issued by NWS

Home | Current Version | Previous Version | Graphics & Text | Print | Product List | Glossary On
Versions: 1 2 3 4 5 6 7 8 9 10 11 12 13 14 15 16 17 18 19
000
FTUS43 KFGF 301100
TAFBJI
TAF
KBJI 301120Z 3012/3112 01007KT P6SM BKN010
     FM301500 03006KT P6SM BKN015
     FM302000 11006KT P6SM SCT025
     FM311000 13008KT P6SM BKN015=

USA.gov is the U.S. government's official web portal to all federal, state and local government web resources and services.